San Julian, Argentina
Current Conditions -  °F | °C
As of 9:00 AM on Thursday 30 Oct 2014 (Local Time) from SAWG Reporting Station
Moderate Snow Moderate Snow  
Wind Chill: 22°   Ceiling: 1000
Heat Index: 34°   Visibility: 2.1mi
Dew Point: 28°   Wind: 21mph
Humidity: 81%   Direction: 230°SW
Pressure: 29.21"   Gusts: NA
Location:  49.31°S, 67.71°W
Report Text: SAWG 301200Z 23018KT 3500 RASN BKN010OVC045 01/M02 Q0989
Loading
Personal Weather Stations






























Interactive Weather Map
Tropical Storm Tracking
New forecast layout! Learn more

10-Day Weather Forecast

Advertisements
Track Severe Weather on mobile